• Join FlightAware (Why Join?)
  • Login
  • US Flag 
10:58PM EDT


 

Airport Tracker/Info


-or-


 

Live Flight TrackerFlight Track Log ✈ ASQ4951 ✈ 11-May-2013 ✈ KGSP - KATL

Flight Track Log - Related Links

Times and Time Zones

All times are in EDT time to prevent confusion due to time zone crossing. See the ASQ4951 flight status page for this flight to view local times or setup timezone preferences in your user account.

Time Position Orientation Groundspeed Altitude Reporting Facility
EDT Latitude Longitude Course Direction KTS MPH feet Rate Location/Type
04:26PM 34.8483 -82.2872 260° West 171 197 4,200  Level Atlanta Center
04:27PM 34.8367 -82.3661 260° West 189 217 6,100 2,160 Climbing Atlanta Center
04:28PM 34.8253 -82.4497 261° West 231 266 8,600 2,400 Climbing Atlanta Center
04:29PM 34.8119 -82.5386 260° West 259 298 10,900 1,680 Climbing Atlanta Center
04:30PM 34.7964 -82.6400 259° West 283 326 12,000 1,500 Climbing Atlanta Center
04:31PM 34.7789 -82.7542 259° West 320 368 13,900 1,920 Climbing Atlanta Center
04:32PM 34.7486 -82.8583 251° West 335 386 15,900 2,040 Climbing Atlanta Center
04:33PM 34.6889 -82.9500 232° Southwest 340 391 18,000 2,040 Climbing Atlanta Center
04:34PM 34.6272 -83.0392 230° Southwest 351 404 20,000 1,680 Climbing Atlanta Center
04:35PM 34.5672 -83.1281 231° Southwest 351 404 21,400 960 Climbing Atlanta Center
04:36PM 34.5033 -83.2194 230° Southwest 357 411 22,000 300 Climbing Atlanta Center
04:37PM 34.4369 -83.3211 232° Southwest 377 434 22,000 -660 Level Atlanta Center
04:38PM 34.3686 -83.4247 231° Southwest 377 434 20,700 -1,560 Descending Atlanta Center
04:39PM 34.3128 -83.5106 232° Southwest 385 443 18,900 -1,920 Descending Atlanta Center
04:40PM 34.2506 -83.5989 230° Southwest 362 417 16,900 -2,040 Descending Atlanta Center
04:41PM 34.1608 -83.6497 205° Southwest 347 399 14,900 -2,040 Descending Atlanta Center
04:42PM 34.0756 -83.6978 205° Southwest 347 399 12,900 -1,560 Descending Atlanta Center
04:43PM 34.0214 -83.7781 231° Southwest 318 366 11,800 -1,140 Descending Atlanta Center
04:44PM 33.9944 -83.8608 249° West 286 329 10,700 -1,080 Descending Atlanta Center
04:45PM 33.9667 -83.9333 245° Southwest 273 314 9,900 -960 Descending Atlanta TRACON
04:46PM 33.9333 -84.0167 244° Southwest 262 302 9,000 -900 Descending Atlanta TRACON
04:47PM 33.8667 -84.0500 203° Southwest 275 316 8,100 -1,560 Descending Atlanta TRACON
04:48PM 33.8000 -84.0833 203° Southwest 269 310 6,100 -1,620 Descending Atlanta TRACON
04:49PM 33.7333 -84.1167 203° Southwest 263 303 5,100 -960 Descending Atlanta TRACON
04:50PM 33.6833 -84.1833 228° Southwest 223 257 4,000 -900 Descending Atlanta TRACON
04:51PM 33.6667 -84.2333 248° West 196 226 3,300 -780 Descending Atlanta TRACON
04:52PM 33.6500 -84.3000 253° West 191 220 2,700 -660 Descending Atlanta TRACON
04:53PM 33.6500 -84.3500 270° West 157 181 2,000 -720 Descending Atlanta TRACON
04:54PM 33.6500 -84.4000 270° West 133 153 1,200 -780 Descending Atlanta TRACON
04:56PM 33.6367 -84.4279 270° West  Level Estimated
05:03PM 33.6367 -84.4279 64° Northeast  Level Estimated